sensor_id;sensor_type;location;lat;lon;timestamp;pressure;altitude;pressure_sealevel;temperature;humidity
52975;BME280;38839;45.186;5.720;2023-01-26T00:01:24;99657.69;;;4.31;61.20
52975;BME280;38839;45.186;5.720;2023-01-26T00:03:52;99654.22;;;4.30;61.60
52975;BME280;38839;45.186;5.720;2023-01-26T00:06:19;99654.22;;;4.30;61.31
52975;BME280;38839;45.186;5.720;2023-01-26T00:08:47;99647.22;;;4.26;61.36
52975;BME280;38839;45.186;5.720;2023-01-26T00:11:15;99649.94;;;4.31;61.51
52975;BME280;38839;45.186;5.720;2023-01-26T00:13:41;99645.72;;;4.34;61.11
52975;BME280;38839;45.186;5.720;2023-01-26T00:16:09;99634.81;;;4.43;60.98
52975;BME280;38839;45.186;5.720;2023-01-26T00:18:36;99633.97;;;4.44;60.89
52975;BME280;38839;45.186;5.720;2023-01-26T00:21:02;99621.06;;;4.44;61.06
52975;BME280;38839;45.186;5.720;2023-01-26T00:23:29;99623.16;;;4.57;60.86
52975;BME280;38839;45.186;5.720;2023-01-26T00:25:55;99622.22;;;4.25;61.77
52975;BME280;38839;45.186;5.720;2023-01-26T00:28:20;99616.13;;;4.23;61.88
52975;BME280;38839;45.186;5.720;2023-01-26T00:30:46;99618.53;;;4.17;61.91
52975;BME280;38839;45.186;5.720;2023-01-26T00:33:11;99607.38;;;4.18;61.76
52975;BME280;38839;45.186;5.720;2023-01-26T00:35:37;99605.88;;;4.25;61.45
52975;BME280;38839;45.186;5.720;2023-01-26T00:38:03;99600.81;;;4.29;61.26
52975;BME280;38839;45.186;5.720;2023-01-26T00:40:29;99611.03;;;4.26;61.51
52975;BME280;38839;45.186;5.720;2023-01-26T00:42:55;99604.03;;;4.22;61.72
52975;BME280;38839;45.186;5.720;2023-01-26T00:45:21;99592.91;;;4.23;61.67
52975;BME280;38839;45.186;5.720;2023-01-26T00:47:46;99586.81;;;4.21;61.90
52975;BME280;38839;45.186;5.720;2023-01-26T00:50:12;99597.50;;;4.33;61.43
52975;BME280;38839;45.186;5.720;2023-01-26T00:52:37;99594.00;;;4.31;61.57
52975;BME280;38839;45.186;5.720;2023-01-26T00:55:03;99590.13;;;4.17;62.01
52975;BME280;38839;45.186;5.720;2023-01-26T00:57:29;99592.59;;;4.14;62.19
52975;BME280;38839;45.186;5.720;2023-01-26T00:59:54;99584.50;;;4.01;62.28
52975;BME280;38839;45.186;5.720;2023-01-26T01:02:19;99583.13;;;4.13;62.39
52975;BME280;38839;45.186;5.720;2023-01-26T01:04:45;99578.03;;;4.16;62.41
52975;BME280;38839;45.186;5.720;2023-01-26T01:07:10;99579.38;;;4.32;61.82
52975;BME280;38839;45.186;5.720;2023-01-26T01:09:36;99574.50;;;4.42;61.21
52975;BME280;38839;45.186;5.720;2023-01-26T01:12:01;99577.19;;;4.46;60.81
52975;BME280;38839;45.186;5.720;2023-01-26T01:14:26;99573.84;;;4.50;60.90
52975;BME280;38839;45.186;5.720;2023-01-26T01:16:52;99573.84;;;4.50;61.15
52975;BME280;38839;45.186;5.720;2023-01-26T01:19:17;99567.25;;;4.61;60.67
52975;BME280;38839;45.186;5.720;2023-01-26T01:21:43;99563.91;;;4.65;60.59
52975;BME280;38839;45.186;5.720;2023-01-26T01:24:10;99567.06;;;4.53;60.74
52975;BME280;38839;45.186;5.720;2023-01-26T01:26:36;99552.91;;;4.40;61.27
52975;BME280;38839;45.186;5.720;2023-01-26T01:29:02;99553.63;;;4.35;61.52
52975;BME280;38839;45.186;5.720;2023-01-26T01:31:28;99552.91;;;4.40;61.49
52975;BME280;38839;45.186;5.720;2023-01-26T01:33:56;99545.38;;;4.48;61.29
52975;BME280;38839;45.186;5.720;2023-01-26T01:36:22;99548.09;;;4.53;61.07
52975;BME280;38839;45.186;5.720;2023-01-26T01:38:48;99544.91;;;4.63;60.99
52975;BME280;38839;45.186;5.720;2023-01-26T01:41:16;99542.91;;;4.53;60.80
52975;BME280;38839;45.186;5.720;2023-01-26T01:43:42;99542.09;;;4.54;61.03
52975;BME280;38839;45.186;5.720;2023-01-26T01:46:29;99540.00;;;4.72;60.53
52975;BME280;38839;45.186;5.720;2023-01-26T01:49:02;99535.44;;;4.32;61.66
52975;BME280;38839;45.186;5.720;2023-01-26T01:51:39;99533.66;;;4.29;61.72
52975;BME280;38839;45.186;5.720;2023-01-26T01:54:12;99532.66;;;4.24;62.17
52975;BME280;38839;45.186;5.720;2023-01-26T01:56:42;99529.94;;;4.19;62.02
52975;BME280;38839;45.186;5.720;2023-01-26T01:59:10;99529.00;;;4.48;61.48
52975;BME280;38839;45.186;5.720;2023-01-26T02:01:36;99523.31;;;4.59;60.94
52975;BME280;38839;45.186;5.720;2023-01-26T02:04:04;99524.19;;;4.60;60.99
52975;BME280;38839;45.186;5.720;2023-01-26T02:06:48;99516.47;;;4.61;61.08
52975;BME280;38839;45.186;5.720;2023-01-26T02:09:15;99512.13;;;4.60;61.09
52975;BME280;38839;45.186;5.720;2023-01-26T02:12:04;99511.41;;;4.66;61.06
52975;BME280;38839;45.186;5.720;2023-01-26T02:14:32;99511.91;;;4.53;60.98
52975;BME280;38839;45.186;5.720;2023-01-26T02:16:57;99506.84;;;4.56;60.93
52975;BME280;38839;45.186;5.720;2023-01-26T02:19:43;99499.56;;;4.42;61.38
52975;BME280;38839;45.186;5.720;2023-01-26T02:22:18;99498.66;;;4.40;61.55
52975;BME280;38839;45.186;5.720;2023-01-26T02:24:48;99498.09;;;4.19;61.97
52975;BME280;38839;45.186;5.720;2023-01-26T02:27:14;99505.72;;;4.16;62.06
52975;BME280;38839;45.186;5.720;2023-01-26T02:29:40;99498.22;;;4.23;61.76
52975;BME280;38839;45.186;5.720;2023-01-26T02:32:06;99490.84;;;4.37;61.43
52975;BME280;38839;45.186;5.720;2023-01-26T02:34:31;99490.22;;;4.46;61.09
52975;BME280;38839;45.186;5.720;2023-01-26T02:36:58;99489.06;;;4.36;61.48
52975;BME280;38839;45.186;5.720;2023-01-26T02:42:07;99485.91;;;4.45;61.64
52975;BME280;38839;45.186;5.720;2023-01-26T02:44:51;99484.25;;;4.49;61.43
52975;BME280;38839;45.186;5.720;2023-01-26T02:47:17;99488.00;;;4.60;61.02
52975;BME280;38839;45.186;5.720;2023-01-26T02:49:43;99484.66;;;4.64;60.82
52975;BME280;38839;45.186;5.720;2023-01-26T02:52:13;99487.03;;;4.56;60.93
52975;BME280;38839;45.186;5.720;2023-01-26T02:54:38;99476.09;;;4.67;60.51
52975;BME280;38839;45.186;5.720;2023-01-26T02:57:22;99472.72;;;4.69;60.30
52975;BME280;38839;45.186;5.720;2023-01-26T02:59:48;99474.16;;;4.58;59.93
52975;BME280;38839;45.186;5.720;2023-01-26T03:02:13;99466.47;;;4.59;60.01
52975;BME280;38839;45.186;5.720;2023-01-26T03:04:40;99465.25;;;4.47;60.47
52975;BME280;38839;45.186;5.720;2023-01-26T03:07:05;99474.00;;;4.52;60.79
52975;BME280;38839;45.186;5.720;2023-01-26T03:09:30;99470.88;;;4.65;60.55
52975;BME280;38839;45.186;5.720;2023-01-26T03:11:56;99469.06;;;4.61;60.47
52975;BME280;38839;45.186;5.720;2023-01-26T03:14:21;99464.97;;;4.69;59.92
52975;BME280;38839;45.186;5.720;2023-01-26T03:16:46;99460.66;;;4.68;59.91
52975;BME280;38839;45.186;5.720;2023-01-26T03:19:14;99465.91;;;4.73;59.38
52975;BME280;38839;45.186;5.720;2023-01-26T03:21:58;99464.94;;;4.68;59.26
52975;BME280;38839;45.186;5.720;2023-01-26T03:24:42;99465.72;;;4.65;59.41
52975;BME280;38839;45.186;5.720;2023-01-26T03:27:28;99468.50;;;4.39;59.98
52975;BME280;38839;45.186;5.720;2023-01-26T03:29:55;99459.63;;;4.30;60.98
52975;BME280;38839;45.186;5.720;2023-01-26T03:32:20;99462.41;;;4.06;62.22
52975;BME280;38839;45.186;5.720;2023-01-26T03:34:46;99457.41;;;4.12;62.27
52975;BME280;38839;45.186;5.720;2023-01-26T03:37:11;99459.00;;;4.07;62.99
52975;BME280;38839;45.186;5.720;2023-01-26T03:39:37;99456.84;;;3.90;63.40
52975;BME280;38839;45.186;5.720;2023-01-26T03:42:21;99450.25;;;4.01;62.86
52975;BME280;38839;45.186;5.720;2023-01-26T03:45:05;99450.81;;;3.91;63.31
52975;BME280;38839;45.186;5.720;2023-01-26T03:47:50;99447.66;;;4.00;63.31
52975;BME280;38839;45.186;5.720;2023-01-26T03:50:33;99449.59;;;4.09;62.97
52975;BME280;38839;45.186;5.720;2023-01-26T03:53:22;99450.94;;;3.94;64.08
52975;BME280;38839;45.186;5.720;2023-01-26T03:56:09;99459.31;;;3.87;64.11
52975;BME280;38839;45.186;5.720;2023-01-26T03:58:45;99441.63;;;3.71;64.51
52975;BME280;38839;45.186;5.720;2023-01-26T04:01:11;99443.47;;;3.75;64.41
52975;BME280;38839;45.186;5.720;2023-01-26T04:03:43;99447.81;;;3.76;64.21
52975;BME280;38839;45.186;5.720;2023-01-26T04:06:26;99443.25;;;3.97;63.77
52975;BME280;38839;45.186;5.720;2023-01-26T04:09:10;99434.00;;;4.04;63.63
52975;BME280;38839;45.186;5.720;2023-01-26T04:11:36;99432.34;;;4.08;63.71
52975;BME280;38839;45.186;5.720;2023-01-26T04:14:01;99439.13;;;3.72;63.83
52975;BME280;38839;45.186;5.720;2023-01-26T04:16:45;99433.38;;;3.52;63.47
52975;BME280;38839;45.186;5.720;2023-01-26T04:19:29;99431.34;;;3.42;63.78
52975;BME280;38839;45.186;5.720;2023-01-26T04:22:13;99431.06;;;3.61;63.66
52975;BME280;38839;45.186;5.720;2023-01-26T04:24:39;99431.81;;;3.57;63.48
52975;BME280;38839;45.186;5.720;2023-01-26T04:27:04;99431.19;;;3.66;63.04
52975;BME280;38839;45.186;5.720;2023-01-26T04:29:30;99432.06;;;3.67;62.66
52975;BME280;38839;45.186;5.720;2023-01-26T04:31:55;99426.41;;;3.50;62.87
52975;BME280;38839;45.186;5.720;2023-01-26T04:34:20;99426.47;;;3.51;62.39
52975;BME280;38839;45.186;5.720;2023-01-26T04:36:46;99423.16;;;3.55;62.51
52975;BME280;38839;45.186;5.720;2023-01-26T04:39:11;99416.91;;;3.47;62.97
52975;BME280;38839;45.186;5.720;2023-01-26T04:41:37;99421.94;;;3.42;63.63
52975;BME280;38839;45.186;5.720;2023-01-26T04:44:02;99414.94;;;3.38;63.33
52975;BME280;38839;45.186;5.720;2023-01-26T04:46:27;99412.09;;;3.31;63.81
52975;BME280;38839;45.186;5.720;2023-01-26T04:48:53;99410.25;;;3.27;63.96
52975;BME280;38839;45.186;5.720;2023-01-26T04:51:19;99399.44;;;3.38;63.79
52975;BME280;38839;45.186;5.720;2023-01-26T04:53:46;99396.81;;;3.37;63.97
52975;BME280;38839;45.186;5.720;2023-01-26T04:56:28;99396.03;;;3.70;63.28
52975;BME280;38839;45.186;5.720;2023-01-26T04:58:55;99397.31;;;3.84;63.01
52975;BME280;38839;45.186;5.720;2023-01-26T05:01:22;99390.34;;;3.81;62.77
52975;BME280;38839;45.186;5.720;2023-01-26T05:03:47;99396.03;;;3.70;63.34
52975;BME280;38839;45.186;5.720;2023-01-26T05:06:13;99387.56;;;3.74;63.20
52975;BME280;38839;45.186;5.720;2023-01-26T05:08:38;99388.66;;;3.82;62.70
52975;BME280;38839;45.186;5.720;2023-01-26T05:11:04;99392.53;;;3.68;62.88
52975;BME280;38839;45.186;5.720;2023-01-26T05:13:30;99393.59;;;3.74;63.06
52975;BME280;38839;45.186;5.720;2023-01-26T05:15:55;99392.44;;;3.65;62.89
52975;BME280;38839;45.186;5.720;2023-01-26T05:18:20;99391.53;;;3.62;63.27
52975;BME280;38839;45.186;5.720;2023-01-26T05:20:46;99392.38;;;3.61;63.21
52975;BME280;38839;45.186;5.720;2023-01-26T05:23:12;99388.31;;;3.70;62.97
52975;BME280;38839;45.186;5.720;2023-01-26T05:25:37;99381.94;;;3.58;63.29
52975;BME280;38839;45.186;5.720;2023-01-26T05:28:03;99377.63;;;3.57;63.31
52975;BME280;38839;45.186;5.720;2023-01-26T05:30:29;99381.94;;;3.58;62.67
52975;BME280;38839;45.186;5.720;2023-01-26T05:33:03;99380.38;;;3.63;62.74
52975;BME280;38839;45.186;5.720;2023-01-26T05:35:29;99377.69;;;3.59;62.92
52975;BME280;38839;45.186;5.720;2023-01-26T05:37:55;99381.00;;;3.55;63.05
52975;BME280;38839;45.186;5.720;2023-01-26T05:40:20;99370.13;;;3.67;63.04
52975;BME280;38839;45.186;5.720;2023-01-26T05:42:46;99374.06;;;3.84;62.70
52975;BME280;38839;45.186;5.720;2023-01-26T05:45:11;99373.97;;;3.81;62.59
52975;BME280;38839;45.186;5.720;2023-01-26T05:47:37;99377.81;;;3.95;62.25
52975;BME280;38839;45.186;5.720;2023-01-26T05:50:03;99363.38;;;4.02;62.16
52975;BME280;38839;45.186;5.720;2023-01-26T05:52:29;99368.97;;;3.87;62.32
52975;BME280;38839;45.186;5.720;2023-01-26T05:54:54;99357.41;;;4.05;62.01
52975;BME280;38839;45.186;5.720;2023-01-26T05:57:20;99363.38;;;4.02;62.29
52975;BME280;38839;45.186;5.720;2023-01-26T05:59:45;99361.78;;;4.07;61.99
52975;BME280;38839;45.186;5.720;2023-01-26T06:02:11;99366.63;;;3.95;62.15
52975;BME280;38839;45.186;5.720;2023-01-26T06:04:37;99365.75;;;3.94;62.32
52975;BME280;38839;45.186;5.720;2023-01-26T06:07:04;99373.97;;;3.81;62.49
52975;BME280;38839;45.186;5.720;2023-01-26T06:09:31;99367.31;;;3.89;62.81
52975;BME280;38839;45.186;5.720;2023-01-26T06:11:56;99369.03;;;4.22;62.05
52975;BME280;38839;45.186;5.720;2023-01-26T06:14:22;99368.06;;;4.17;61.98
52975;BME280;38839;45.186;5.720;2023-01-26T06:16:47;99363.53;;;4.08;61.98
52975;BME280;38839;45.186;5.720;2023-01-26T06:19:12;99361.44;;;4.28;61.63
52975;BME280;38839;45.186;5.720;2023-01-26T06:21:38;99354.44;;;4.24;61.47
52975;BME280;38839;45.186;5.720;2023-01-26T06:24:03;99349.75;;;4.42;60.93
52975;BME280;38839;45.186;5.720;2023-01-26T06:26:29;99352.47;;;4.49;60.66
52975;BME280;38839;45.186;5.720;2023-01-26T06:28:54;99349.84;;;4.46;60.94
52975;BME280;38839;45.186;5.720;2023-01-26T06:31:20;99350.94;;;4.55;60.65
52975;BME280;38839;45.186;5.720;2023-01-26T06:33:48;99339.84;;;4.61;60.33
52975;BME280;38839;45.186;5.720;2023-01-26T06:36:14;99346.50;;;4.50;60.04
52975;BME280;38839;45.186;5.720;2023-01-26T06:38:47;99345.63;;;4.16;60.24
52975;BME280;38839;45.186;5.720;2023-01-26T06:41:14;99346.75;;;3.92;61.52
52975;BME280;38839;45.186;5.720;2023-01-26T06:43:43;99348.06;;;4.08;61.30
52975;BME280;38839;45.186;5.720;2023-01-26T06:46:09;99340.47;;;4.14;60.96
52975;BME280;38839;45.186;5.720;2023-01-26T06:48:34;99340.78;;;4.28;60.77
52975;BME280;38839;45.186;5.720;2023-01-26T06:53:56;99345.03;;;4.26;60.68
52975;BME280;38839;45.186;5.720;2023-01-26T06:56:22;99349.50;;;3.98;60.82
52975;BME280;38839;45.186;5.720;2023-01-26T06:58:48;99346.06;;;3.99;61.21
52975;BME280;38839;45.186;5.720;2023-01-26T07:01:19;99348.53;;;3.95;61.52
52975;BME280;38839;45.186;5.720;2023-01-26T07:03:49;99354.47;;;3.91;61.85
52975;BME280;38839;45.186;5.720;2023-01-26T07:06:15;99344.72;;;4.14;61.28
52975;BME280;38839;45.186;5.720;2023-01-26T07:08:40;99341.53;;;4.22;60.85
52975;BME280;38839;45.186;5.720;2023-01-26T07:11:06;99340.56;;;4.19;61.40
52975;BME280;38839;45.186;5.720;2023-01-26T07:13:31;99339.56;;;4.14;61.33
52975;BME280;38839;45.186;5.720;2023-01-26T07:16:09;99341.03;;;4.37;60.77
52975;BME280;38839;45.186;5.720;2023-01-26T07:18:35;99336.06;;;4.47;60.40
52975;BME280;38839;45.186;5.720;2023-01-26T07:21:09;99336.16;;;4.50;60.49
52975;BME280;38839;45.186;5.720;2023-01-26T07:23:34;99336.22;;;4.53;60.04
52975;BME280;38839;45.186;5.720;2023-01-26T07:26:00;99329.78;;;4.35;60.58
52975;BME280;38839;45.186;5.720;2023-01-26T07:28:26;99333.19;;;4.34;60.86
52975;BME280;38839;45.186;5.720;2023-01-26T07:30:56;99330.75;;;4.40;60.53
52975;BME280;38839;45.186;5.720;2023-01-26T07:33:22;99328.72;;;4.27;60.85
52975;BME280;38839;45.186;5.720;2023-01-26T07:35:47;99328.97;;;4.38;60.98
52975;BME280;38839;45.186;5.720;2023-01-26T07:38:16;99340.41;;;4.13;60.60
52975;BME280;38839;45.186;5.720;2023-01-26T07:40:42;99328.38;;;4.13;61.16
52975;BME280;38839;45.186;5.720;2023-01-26T07:43:07;99338.59;;;4.09;61.09
52975;BME280;38839;45.186;5.720;2023-01-26T07:45:33;99327.09;;;3.97;61.15
52975;BME280;38839;45.186;5.720;2023-01-26T07:48:00;99332.03;;;3.88;61.16
52975;BME280;38839;45.186;5.720;2023-01-26T07:50:25;99331.81;;;3.80;60.70
52975;BME280;38839;45.186;5.720;2023-01-26T07:52:51;99334.19;;;3.73;61.29
52975;BME280;38839;45.186;5.720;2023-01-26T07:55:17;99333.84;;;3.60;61.45
52975;BME280;38839;45.186;5.720;2023-01-26T07:57:47;99330.69;;;3.71;61.76
52975;BME280;38839;45.186;5.720;2023-01-26T08:00:13;99317.66;;;3.66;61.33
52975;BME280;38839;45.186;5.720;2023-01-26T08:02:38;99321.81;;;3.93;61.02
52975;BME280;38839;45.186;5.720;2023-01-26T08:05:04;99313.75;;;4.14;60.36
52975;BME280;38839;45.186;5.720;2023-01-26T08:07:30;99309.88;;;4.31;60.05
52975;BME280;38839;45.186;5.720;2023-01-26T08:09:56;99318.06;;;4.50;59.62
52975;BME280;38839;45.186;5.720;2023-01-26T08:12:23;99313.25;;;4.65;59.21
52975;BME280;38839;45.186;5.720;2023-01-26T08:14:49;99312.50;;;4.33;59.47
52975;BME280;38839;45.186;5.720;2023-01-26T08:17:15;99312.88;;;4.13;59.93
52975;BME280;38839;45.186;5.720;2023-01-26T08:19:41;99321.97;;;3.99;59.76
52975;BME280;38839;45.186;5.720;2023-01-26T08:22:07;99317.69;;;3.99;60.54
52975;BME280;38839;45.186;5.720;2023-01-26T08:24:33;99310.09;;;4.40;59.79
52975;BME280;38839;45.186;5.720;2023-01-26T08:26:58;99309.47;;;4.49;59.48
52975;BME280;38839;45.186;5.720;2023-01-26T08:29:24;99316.25;;;4.46;59.68
52975;BME280;38839;45.186;5.720;2023-01-26T08:31:49;99315.53;;;4.53;58.80
52975;BME280;38839;45.186;5.720;2023-01-26T08:34:14;99310.25;;;4.47;59.25
52975;BME280;38839;45.186;5.720;2023-01-26T08:36:40;99312.97;;;4.18;60.07
52975;BME280;38839;45.186;5.720;2023-01-26T08:39:05;99307.84;;;4.54;59.44
52975;BME280;38839;45.186;5.720;2023-01-26T08:41:30;99309.59;;;4.55;59.31
52975;BME280;38839;45.186;5.720;2023-01-26T08:43:57;99303.78;;;4.64;58.75
52975;BME280;38839;45.186;5.720;2023-01-26T08:46:24;99300.00;;;4.50;59.20
52975;BME280;38839;45.186;5.720;2023-01-26T08:48:49;99305.88;;;4.44;59.25
52975;BME280;38839;45.186;5.720;2023-01-26T08:51:14;99300.50;;;4.73;58.78
52975;BME280;38839;45.186;5.720;2023-01-26T08:53:40;99310.31;;;4.86;58.09
52975;BME280;38839;45.186;5.720;2023-01-26T08:56:07;99317.78;;;4.75;57.93
52975;BME280;38839;45.186;5.720;2023-01-26T08:58:34;99307.09;;;4.96;57.62
52975;BME280;38839;45.186;5.720;2023-01-26T09:01:12;99312.16;;;4.93;57.97
52975;BME280;38839;45.186;5.720;2023-01-26T09:03:39;99310.03;;;5.13;57.13
52975;BME280;38839;45.186;5.720;2023-01-26T09:06:06;99319.41;;;5.10;57.33
52975;BME280;38839;45.186;5.720;2023-01-26T09:08:32;99314.34;;;5.14;57.07
52975;BME280;38839;45.186;5.720;2023-01-26T09:10:57;99315.94;;;5.08;57.14
52975;BME280;38839;45.186;5.720;2023-01-26T09:13:23;99309.13;;;4.73;57.86
52975;BME280;38839;45.186;5.720;2023-01-26T09:15:48;99313.66;;;4.82;57.72
52975;BME280;38839;45.186;5.720;2023-01-26T09:18:14;99316.47;;;4.93;57.39
52975;BME280;38839;45.186;5.720;2023-01-26T09:20:39;99312.41;;;5.04;57.30
52975;BME280;38839;45.186;5.720;2023-01-26T09:23:05;99306.72;;;5.20;56.87
52975;BME280;38839;45.186;5.720;2023-01-26T09:25:31;99319.47;;;5.11;56.77
52975;BME280;38839;45.186;5.720;2023-01-26T09:27:56;99315.44;;;5.26;56.46
52975;BME280;38839;45.186;5.720;2023-01-26T09:30:22;99321.94;;;5.07;56.97
52975;BME280;38839;45.186;5.720;2023-01-26T09:32:57;99310.78;;;5.09;56.71
52975;BME280;38839;45.186;5.720;2023-01-26T09:35:23;99317.78;;;5.13;55.99
52975;BME280;38839;45.186;5.720;2023-01-26T09:37:48;99313.94;;;4.96;56.24
52975;BME280;38839;45.186;5.720;2023-01-26T09:40:20;99314.88;;;4.99;56.03
52975;BME280;38839;45.186;5.720;2023-01-26T09:42:58;99320.78;;;4.94;56.67
52975;BME280;38839;45.186;5.720;2023-01-26T09:45:30;99323.31;;;4.91;56.45
52975;BME280;38839;45.186;5.720;2023-01-26T09:50:30;99312.19;;;4.57;56.93
52975;BME280;38839;45.186;5.720;2023-01-26T09:53:02;99317.78;;;4.74;56.45
52975;BME280;38839;45.186;5.720;2023-01-26T09:55:30;99312.97;;;4.91;56.20
52975;BME280;38839;45.186;5.720;2023-01-26T09:57:59;99322.25;;;4.44;56.94
52975;BME280;38839;45.186;5.720;2023-01-26T10:00:42;99326.25;;;4.68;57.00
52975;BME280;38839;45.186;5.720;2023-01-26T10:03:17;99327.03;;;4.64;56.05
52975;BME280;38839;45.186;5.720;2023-01-26T10:08:19;99320.69;;;4.89;56.17
52975;BME280;38839;45.186;5.720;2023-01-26T10:10:52;99315.75;;;5.00;55.95
52975;BME280;38839;45.186;5.720;2023-01-26T10:13:19;99321.59;;;4.91;55.91
52975;BME280;38839;45.186;5.720;2023-01-26T10:16:02;99316.66;;;4.62;55.40
52975;BME280;38839;45.186;5.720;2023-01-26T10:18:32;99321.97;;;4.69;55.88
52975;BME280;38839;45.186;5.720;2023-01-26T10:21:00;99327.16;;;4.70;55.71
52975;BME280;38839;45.186;5.720;2023-01-26T10:23:32;99320.28;;;4.34;56.52
52975;BME280;38839;45.186;5.720;2023-01-26T10:26:12;99325.13;;;4.57;56.20
52975;BME280;38839;45.186;5.720;2023-01-26T10:28:41;99321.63;;;4.55;56.04
52975;BME280;38839;45.186;5.720;2023-01-26T10:31:14;99318.75;;;4.42;56.39
52975;BME280;38839;45.186;5.720;2023-01-26T10:33:46;99327.97;;;4.31;56.60
52975;BME280;38839;45.186;5.720;2023-01-26T10:36:13;99324.81;;;4.10;56.53
52975;BME280;38839;45.186;5.720;2023-01-26T10:38:40;99320.56;;;4.10;56.50
52975;BME280;38839;45.186;5.720;2023-01-26T10:43:36;99314.50;;;4.10;56.57
52975;BME280;38839;45.186;5.720;2023-01-26T10:46:04;99313.38;;;4.33;56.37
52975;BME280;38839;45.186;5.720;2023-01-26T10:48:29;99306.75;;;4.44;56.10
52975;BME280;38839;45.186;5.720;2023-01-26T10:51:13;99310.19;;;4.43;55.66
52975;BME280;38839;45.186;5.720;2023-01-26T10:53:39;99305.84;;;4.42;55.95
52975;BME280;38839;45.186;5.720;2023-01-26T10:56:05;99302.72;;;4.56;55.86
52975;BME280;38839;45.186;5.720;2023-01-26T11:01:09;99303.41;;;4.49;55.85
52975;BME280;38839;45.186;5.720;2023-01-26T11:03:59;99300.47;;;4.71;55.47
52975;BME280;38839;45.186;5.720;2023-01-26T11:06:29;99301.91;;;4.96;55.11
52975;BME280;38839;45.186;5.720;2023-01-26T11:09:16;99292.69;;;5.09;54.80
52975;BME280;38839;45.186;5.720;2023-01-26T11:11:53;99302.56;;;4.86;55.22
52975;BME280;38839;45.186;5.720;2023-01-26T11:14:19;99293.13;;;4.90;54.81
52975;BME280;38839;45.186;5.720;2023-01-26T11:16:49;99288.31;;;4.67;54.31
52975;BME280;38839;45.186;5.720;2023-01-26T11:19:49;99287.78;;;4.80;54.27
52975;BME280;38839;45.186;5.720;2023-01-26T11:25:10;99301.19;;;4.64;53.72
52975;BME280;38839;45.186;5.720;2023-01-26T11:27:56;99288.19;;;4.61;53.40
52975;BME280;38839;45.186;5.720;2023-01-26T11:33:48;99288.03;;;4.55;53.36
52975;BME280;38839;45.186;5.720;2023-01-26T11:36:34;99286.41;;;4.58;52.68
52975;BME280;38839;45.186;5.720;2023-01-26T11:41:58;99282.44;;;4.36;53.00
52975;BME280;38839;45.186;5.720;2023-01-26T11:47:32;99269.41;;;4.68;52.48
52975;BME280;38839;45.186;5.720;2023-01-26T11:50:08;99274.72;;;4.74;52.53
52975;BME280;38839;45.186;5.720;2023-01-26T11:55:26;99270.09;;;4.61;52.32
52975;BME280;38839;45.186;5.720;2023-01-26T12:00:55;99263.50;;;4.74;52.19
52975;BME280;38839;45.186;5.720;2023-01-26T12:03:26;99268.03;;;4.46;52.61
52975;BME280;38839;45.186;5.720;2023-01-26T12:05:57;99263.56;;;4.77;52.48
52975;BME280;38839;45.186;5.720;2023-01-26T12:10:58;99252.06;;;5.03;52.10
52975;BME280;38839;45.186;5.720;2023-01-26T12:22:04;99243.19;;;5.35;51.58
52975;BME280;38839;45.186;5.720;2023-01-26T12:24:49;99236.31;;;5.37;51.74
52975;BME280;38839;45.186;5.720;2023-01-26T12:27:24;99233.63;;;5.31;52.29
52975;BME280;38839;45.186;5.720;2023-01-26T12:30:15;99239.66;;;5.30;52.24
52975;BME280;38839;45.186;5.720;2023-01-26T12:32:44;99243.97;;;5.29;52.18
52975;BME280;38839;45.186;5.720;2023-01-26T12:35:10;99236.06;;;5.21;52.14
52975;BME280;38839;45.186;5.720;2023-01-26T12:37:53;99228.34;;;5.24;52.27
52975;BME280;38839;45.186;5.720;2023-01-26T12:45:46;99225.75;;;5.23;52.87
52975;BME280;38839;45.186;5.720;2023-01-26T12:48:24;99222.25;;;5.22;53.09
52975;BME280;38839;45.186;5.720;2023-01-26T12:51:01;99220.66;;;5.28;52.80
52975;BME280;38839;45.186;5.720;2023-01-26T12:56:27;99219.91;;;5.33;53.21
52975;BME280;38839;45.186;5.720;2023-01-26T12:58:56;99210.47;;;5.37;52.82
52975;BME280;38839;45.186;5.720;2023-01-26T13:01:24;99208.78;;;5.39;52.46
52975;BME280;38839;45.186;5.720;2023-01-26T13:03:54;99207.75;;;5.29;53.03
52975;BME280;38839;45.186;5.720;2023-01-26T18:13:42;99187.47;;;5.05;52.33
52975;BME280;38839;45.186;5.720;2023-01-26T18:16:09;99192.09;;;5.21;52.15
52975;BME280;38839;45.186;5.720;2023-01-26T18:18:36;99193.75;;;5.19;52.13
52975;BME280;38839;45.186;5.720;2023-01-26T18:21:31;99187.81;;;5.23;51.86
52975;BME280;38839;45.186;5.720;2023-01-26T18:24:00;99191.97;;;5.15;51.97
52975;BME280;38839;45.186;5.720;2023-01-26T18:26:29;99184.00;;;5.04;52.35
52975;BME280;38839;45.186;5.720;2023-01-26T18:28:55;99182.31;;;5.08;52.53
52975;BME280;38839;45.186;5.720;2023-01-26T18:31:30;99181.41;;;5.04;53.01
52975;BME280;38839;45.186;5.720;2023-01-26T18:33:57;99183.09;;;5.02;53.31
52975;BME280;38839;45.186;5.720;2023-01-26T18:36:23;99180.94;;;4.81;54.37
52975;BME280;38839;45.186;5.720;2023-01-26T18:38:58;99181.78;;;4.80;54.72
52975;BME280;38839;45.186;5.720;2023-01-26T18:41:25;99181.06;;;4.86;54.78
52975;BME280;38839;45.186;5.720;2023-01-26T18:43:53;99169.91;;;4.89;54.89
52975;BME280;38839;45.186;5.720;2023-01-26T18:46:20;99170.75;;;4.89;55.10
52975;BME280;38839;45.186;5.720;2023-01-26T18:48:46;99169.25;;;4.99;54.76
52975;BME280;38839;45.186;5.720;2023-01-26T18:51:12;99175.13;;;4.92;55.17
52975;BME280;38839;45.186;5.720;2023-01-26T18:53:38;99177.44;;;4.78;55.29
52975;BME280;38839;45.186;5.720;2023-01-26T18:56:09;99173.00;;;4.72;54.68
52975;BME280;38839;45.186;5.720;2023-01-26T18:58:36;99173.84;;;4.70;55.23
52975;BME280;38839;45.186;5.720;2023-01-26T19:01:03;99166.34;;;4.83;55.28
52975;BME280;38839;45.186;5.720;2023-01-26T19:03:31;99170.69;;;4.84;55.75
52975;BME280;38839;45.186;5.720;2023-01-26T19:06:00;99171.50;;;4.83;56.11
52975;BME280;38839;45.186;5.720;2023-01-26T19:08:26;99170.72;;;4.86;56.22
52975;BME280;38839;45.186;5.720;2023-01-26T19:10:51;99174.31;;;4.94;56.02
52975;BME280;38839;45.186;5.720;2023-01-26T19:13:17;99181.09;;;4.89;56.32
52975;BME280;38839;45.186;5.720;2023-01-26T19:15:45;99174.31;;;4.94;56.64
52975;BME280;38839;45.186;5.720;2023-01-26T19:18:11;99166.56;;;4.96;56.20
52975;BME280;38839;45.186;5.720;2023-01-26T19:20:37;99164.88;;;4.96;56.06